Terminal Aerodrome Forecast
Issued by NWS

Current Version | Previous Version | Text Only | Print | Product List | Glossary On
Versions: 1 2 3 4 5 6 7 8 9 10 11 12 13
000
FTUS44 KLZK 211100
TAFLIT
TAF
KLIT 211120Z 2112/2212 18006KT P6SM VCSH SCT040 BKN080
     FM211800 22009KT P6SM -TSRA BKN040CB OVC100
     FM220000 24006KT P6SM VCSH BKN040 OVC100
      TEMPO 2200/2204 4SM TSRA BR BKN025CB
     FM220600 VRB04KT 5SM BR BKN025 OVC040
      TEMPO 2209/2212 2SM BR BKN015 OVC025=

USA.gov is the U.S. government's official web portal to all federal, state and local government web resources and services.